Poznan, Poland
Current Conditions -  °F | °C
As of 7:00 PM on Monday 22 Dec 2014 (Local Time) from EPPO Reporting Station
Light Rain Light Rain  
Wind Chill: 40°   Ceiling: 800
Heat Index: 48°   Visibility: 6mi
Dew Point: 45°   Wind: 28mph
Humidity: 87%   Direction: 260°W
Pressure: 29.68"   Gusts: 41mph
Location:  52.4°N, 16.9°E
Report Text: EPPO 221700Z 26024G36KT 9999 -RA BKN008 BKN012 09/07 Q1005
Loading
Personal Weather Stations






























Interactive Weather Map New forecast layout! Learn more

10-Day Weather Forecast

Advertisements
Track Severe Weather on mobile